Time;durP1;ratioP1;P1;durP2;ratioP2;P2;SDS_P1;SDS_P2;PMS_P1;PMS_P2;Temp;Humidity;BMP_temperature;BMP_pressure;BME280_temperature;BME280_humidity;BME280_pressure;Samples;Min_cycle;Max_cycle;Signal;HPM_P1;HPM_P2
2024/03/11 00:00:43;;;;;;;22.83;16.58;;;13.50;55.70;15.10;99626.00;;;;5010888;28;20680;-75
2024/03/11 00:03:10;;;;;;;22.52;17.10;;;13.50;55.70;15.10;99633.00;;;;5012033;28;20648;-75
2024/03/11 00:05:37;;;;;;;23.15;16.15;;;13.50;55.70;15.10;99638.00;;;;5011379;28;20189;-75
2024/03/11 00:08:08;;;;;;;22.85;16.70;;;13.50;55.70;15.10;99633.00;;;;5009553;28;20280;-74
2024/03/11 00:10:36;;;;;;;21.27;16.92;;;13.40;55.80;15.10;99634.00;;;;5009092;28;20224;-74
2024/03/11 00:13:03;;;;;;;23.90;17.45;;;13.50;55.80;15.10;99636.00;;;;5011341;28;20195;-75
2024/03/11 00:15:33;;;;;;;23.63;16.17;;;13.40;55.80;15.10;99627.00;;;;5011179;28;20200;-74
2024/03/11 00:18:02;;;;;;;24.52;16.98;;;13.50;55.90;15.10;99631.00;;;;5011104;28;20195;-75
2024/03/11 00:20:29;;;;;;;25.40;16.42;;;13.40;55.80;15.10;99640.00;;;;5023825;28;20205;-75
2024/03/11 00:22:57;;;;;;;23.88;17.95;;;13.40;55.80;15.10;99638.00;;;;5008966;28;20197;-75
2024/03/11 00:25:24;;;;;;;21.98;16.27;;;13.40;55.80;15.10;99627.00;;;;5009886;28;20606;-74
2024/03/11 00:27:51;;;;;;;25.38;17.35;;;13.40;55.80;15.10;99630.00;;;;5011831;28;20251;-75
2024/03/11 00:30:18;;;;;;;22.85;16.60;;;13.40;55.90;15.10;99638.00;;;;5010918;28;20283;-75
2024/03/11 00:32:46;;;;;;;22.83;18.00;;;13.40;55.80;15.10;99636.00;;;;5011366;28;20749;-74
2024/03/11 00:35:14;;;;;;;22.30;16.98;;;13.40;55.80;15.10;99634.00;;;;5011795;28;20203;-75
2024/03/11 00:37:42;;;;;;;23.15;16.42;;;13.40;55.80;15.10;99647.00;;;;5013079;28;20196;-75
2024/03/11 00:40:10;;;;;;;21.42;16.30;;;13.40;55.90;15.00;99658.00;;;;5005593;28;20223;-75
2024/03/11 00:42:39;;;;;;;24.05;17.50;;;13.40;55.90;15.00;99655.00;;;;5010629;28;20200;-75
2024/03/11 00:45:10;;;;;;;20.38;16.00;;;13.30;55.80;15.00;99652.00;;;;5011513;28;20204;-75
2024/03/11 00:47:39;;;;;;;25.42;16.55;;;13.30;55.90;15.00;99650.00;;;;5006319;28;20208;-75
2024/03/11 00:50:10;;;;;;;23.17;17.27;;;13.30;55.90;15.00;99645.00;;;;5011152;28;20205;-75
2024/03/11 00:52:37;;;;;;;23.23;17.15;;;13.30;55.90;15.00;99646.00;;;;5013924;28;20212;-75
2024/03/11 00:55:06;;;;;;;21.25;15.88;;;13.30;56.00;15.00;99649.00;;;;5011249;28;20207;-74
2024/03/11 00:57:35;;;;;;;27.95;16.50;;;13.30;56.00;14.90;99647.00;;;;5011622;28;20212;-75
2024/03/11 01:00:04;;;;;;;22.65;16.60;;;13.30;56.50;14.90;99648.00;;;;5011637;28;20228;-75
2024/03/11 01:02:32;;;;;;;24.73;17.05;;;13.30;56.00;14.90;99643.00;;;;5010343;28;20199;-75
2024/03/11 01:04:59;;;;;;;21.90;15.95;;;13.20;56.00;14.90;99645.00;;;;5011510;28;20208;-75
2024/03/11 01:07:28;;;;;;;23.05;17.45;;;13.20;56.10;14.90;99644.00;;;;5010748;28;20197;-75
2024/03/11 01:09:55;;;;;;;22.27;16.75;;;13.20;56.10;14.90;99650.00;;;;5015964;28;20204;-75
2024/03/11 01:12:23;;;;;;;22.58;16.30;;;13.20;56.20;14.90;99656.00;;;;5016534;28;20225;-74
2024/03/11 01:14:51;;;;;;;21.85;16.95;;;13.20;56.20;14.90;99649.00;;;;5011081;28;20272;-75
2024/03/11 01:17:19;;;;;;;24.05;16.73;;;13.20;56.20;14.90;99649.00;;;;5008514;28;20614;-75
2024/03/11 01:19:47;;;;;;;23.60;16.98;;;13.20;56.20;14.90;99657.00;;;;5010281;28;20263;-75
2024/03/11 01:22:15;;;;;;;24.60;17.30;;;13.20;56.30;14.90;99665.00;;;;5010137;28;20201;-75
2024/03/11 01:24:44;;;;;;;24.10;17.27;;;13.20;56.30;14.90;99657.00;;;;5011159;28;20197;-75
2024/03/11 01:27:14;;;;;;;21.25;15.65;;;13.20;56.30;14.90;99661.00;;;;5018073;28;20296;-75
2024/03/11 01:29:41;;;;;;;25.33;17.00;;;13.20;56.30;14.90;99652.00;;;;5030618;28;20211;-75
2024/03/11 01:32:12;;;;;;;22.30;16.40;;;13.20;56.30;14.80;99644.00;;;;5018291;28;20201;-75
2024/03/11 01:34:42;;;;;;;22.73;16.38;;;13.10;56.30;14.90;99652.00;;;;5007562;28;20193;-75
2024/03/11 01:37:09;;;;;;;27.08;16.85;;;13.10;56.30;14.80;99637.00;;;;5011591;28;20201;-75
2024/03/11 01:39:43;;;;;;;21.52;15.80;;;13.10;56.40;14.80;99655.00;;;;5013779;28;20748;-74
2024/03/11 01:42:14;;;;;;;22.60;16.15;;;13.10;56.40;14.80;99648.00;;;;5014168;28;20232;-75
2024/03/11 01:44:43;;;;;;;25.08;16.77;;;13.10;56.40;14.80;99643.00;;;;5009369;28;20201;-75
2024/03/11 01:47:12;;;;;;;21.25;15.63;;;13.10;56.40;14.80;99648.00;;;;5013535;28;20201;-76
2024/03/11 01:49:42;;;;;;;21.20;15.43;;;13.10;56.50;14.80;99646.00;;;;5015105;28;20236;-75
2024/03/11 01:52:14;;;;;;;25.35;16.10;;;13.10;56.50;14.70;99633.00;;;;5013189;28;20204;-75
2024/03/11 01:54:41;;;;;;;22.20;16.05;;;13.10;56.50;14.80;99643.00;;;;5013849;28;20671;-75
2024/03/11 01:57:11;;;;;;;20.52;15.75;;;13.10;56.50;14.70;99645.00;;;;5012498;28;20209;-75
2024/03/11 01:59:40;;;;;;;23.25;17.38;;;13.10;56.50;14.70;99641.00;;;;4994617;28;20225;-74
2024/03/11 02:02:08;;;;;;;21.42;15.52;;;13.10;56.60;14.70;99645.00;;;;5026267;28;20587;-73
2024/03/11 02:04:35;;;;;;;22.55;16.33;;;13.10;56.60;14.70;99646.00;;;;5014423;28;20251;-73
2024/03/11 02:07:03;;;;;;;26.27;17.63;;;13.00;56.60;14.70;99639.00;;;;5013457;28;20276;-73
2024/03/11 02:09:30;;;;;;;21.05;16.02;;;13.00;56.60;14.70;99646.00;;;;5013367;28;20193;-74
2024/03/11 02:11:59;;;;;;;21.77;15.23;;;13.00;56.60;14.70;99647.00;;;;5012910;28;20223;-74
2024/03/11 02:14:28;;;;;;;25.17;17.23;;;13.00;56.60;14.70;99646.00;;;;5013505;28;20197;-74
2024/03/11 02:16:58;;;;;;;22.42;17.50;;;13.00;56.70;14.70;99651.00;;;;5013586;28;20201;-74
2024/03/11 02:19:26;;;;;;;24.52;15.98;;;13.00;56.70;14.70;99649.00;;;;5016268;28;20657;-75
2024/03/11 02:21:53;;;;;;;25.25;16.23;;;13.00;56.70;14.70;99649.00;;;;5013672;28;20204;-74
2024/03/11 02:24:22;;;;;;;22.88;15.88;;;13.00;56.70;14.70;99651.00;;;;5014255;28;20207;-74
2024/03/11 02:26:49;;;;;;;22.65;16.30;;;13.00;56.80;14.70;99647.00;;;;5012653;28;20193;-74
2024/03/11 02:29:16;;;;;;;23.33;16.50;;;13.00;56.80;14.70;99653.00;;;;5013512;28;20573;-74
2024/03/11 02:31:44;;;;;;;22.80;15.73;;;13.00;56.80;14.70;99643.00;;;;5013450;28;20189;-74
2024/03/11 02:34:11;;;;;;;22.73;16.10;;;13.00;56.90;14.70;99658.00;;;;5013485;28;20582;-74
2024/03/11 02:36:46;;;;;;;22.58;17.00;;;13.00;56.90;14.70;99659.00;;;;5024067;28;20215;-74
2024/03/11 02:39:14;;;;;;;24.88;15.93;;;13.00;56.90;14.70;99654.00;;;;5007567;28;20709;-74
2024/03/11 02:41:43;;;;;;;23.38;16.05;;;13.00;56.90;14.70;99665.00;;;;5012140;28;20208;-74
2024/03/11 02:44:12;;;;;;;22.95;16.48;;;13.00;56.90;14.70;99659.00;;;;5012444;28;20219;-75
2024/03/11 02:46:39;;;;;;;23.83;16.67;;;13.00;56.90;14.70;99659.00;;;;5013001;28;20240;-73
2024/03/11 02:49:06;;;;;;;22.58;16.33;;;13.00;56.80;14.60;99661.00;;;;5012223;28;20196;-74
2024/03/11 02:51:33;;;;;;;26.88;17.38;;;13.00;56.80;14.60;99657.00;;;;5015363;28;20239;-74
2024/03/11 02:54:01;;;;;;;26.45;16.17;;;13.00;57.00;14.60;99660.00;;;;5003528;28;20682;-73
2024/03/11 02:56:28;;;;;;;22.13;16.70;;;12.90;56.90;14.60;99657.00;;;;5007427;28;20193;-74
2024/03/11 02:58:56;;;;;;;23.52;16.77;;;12.90;57.00;14.60;99654.00;;;;5004267;28;20292;-75
2024/03/11 03:01:23;;;;;;;25.15;15.80;;;12.90;57.00;14.60;99661.00;;;;5013672;28;20199;-75
2024/03/11 03:03:50;;;;;;;21.70;15.95;;;12.90;57.00;14.60;99658.00;;;;5011737;28;20633;-75
2024/03/11 03:06:17;;;;;;;19.85;15.35;;;12.90;57.00;14.60;99658.00;;;;5013242;28;20741;-74
2024/03/11 03:08:45;;;;;;;21.13;15.27;;;12.90;57.00;14.60;99657.00;;;;5015998;28;20203;-75
2024/03/11 03:11:12;;;;;;;23.13;16.65;;;12.90;57.10;14.60;99657.00;;;;5015894;28;20216;-74
2024/03/11 03:13:40;;;;;;;20.90;16.20;;;12.90;57.10;14.60;99654.00;;;;5012297;28;20200;-74
2024/03/11 03:16:09;;;;;;;22.85;15.98;;;12.90;57.10;14.60;99646.00;;;;5012219;28;20193;-75
2024/03/11 03:18:36;;;;;;;22.80;15.50;;;12.90;57.20;14.60;99643.00;;;;5012527;28;20229;-74
2024/03/11 03:21:03;;;;;;;19.85;15.30;;;12.90;57.10;14.60;99649.00;;;;5012117;28;20478;-74
2024/03/11 03:23:30;;;;;;;22.40;16.45;;;12.90;57.10;14.70;99650.00;;;;5010157;28;20201;-75
2024/03/11 03:25:57;;;;;;;22.95;16.00;;;12.90;57.20;14.70;99647.00;;;;5013433;28;20872;-75
2024/03/11 03:28:24;;;;;;;23.02;16.00;;;12.90;57.20;14.70;99652.00;;;;5012377;28;20682;-74
2024/03/11 03:30:53;;;;;;;22.23;16.15;;;12.90;57.20;14.70;99650.00;;;;5011818;28;20193;-75
2024/03/11 03:33:21;;;;;;;21.90;16.05;;;12.90;57.20;14.70;99662.00;;;;5011591;28;20193;-76
2024/03/11 03:35:49;;;;;;;20.73;15.20;;;12.90;57.20;14.70;99659.00;;;;5012339;28;20671;-75
2024/03/11 03:38:16;;;;;;;19.45;14.77;;;12.90;57.20;14.70;99654.00;;;;5009928;28;20196;-74
2024/03/11 03:40:43;;;;;;;23.95;17.23;;;13.00;57.30;14.70;99656.00;;;;5010294;28;20216;-74
2024/03/11 03:43:10;;;;;;;21.20;15.57;;;13.00;57.40;14.70;99655.00;;;;5017602;28;20215;-74
2024/03/11 03:45:37;;;;;;;22.08;16.30;;;13.00;57.40;14.70;99658.00;;;;5011626;28;20197;-73
2024/03/11 03:48:06;;;;;;;22.17;15.82;;;13.00;57.40;14.70;99662.00;;;;5005455;28;20204;-74
2024/03/11 03:50:34;;;;;;;21.17;15.77;;;13.00;57.50;14.70;99658.00;;;;5012172;28;20231;-74
2024/03/11 03:53:01;;;;;;;21.13;15.73;;;13.00;57.60;14.70;99662.00;;;;5012167;28;20281;-74
2024/03/11 03:55:29;;;;;;;22.75;16.00;;;13.00;57.60;14.70;99658.00;;;;5010212;28;20208;-74
2024/03/11 03:57:56;;;;;;;24.17;16.63;;;13.00;57.60;14.70;99661.00;;;;5011268;28;20227;-74
2024/03/11 04:00:23;;;;;;;21.85;16.17;;;13.00;57.60;14.70;99652.00;;;;5015779;28;20229;-74
2024/03/11 04:02:52;;;;;;;20.73;15.65;;;13.00;57.70;14.70;99656.00;;;;5011645;28;20189;-75
2024/03/11 04:05:21;;;;;;;22.88;16.63;;;12.90;57.70;14.70;99666.00;;;;5011043;28;20197;-72
2024/03/11 04:07:50;;;;;;;22.95;15.60;;;12.90;57.80;14.70;99652.00;;;;5011647;28;20205;-72
2024/03/11 04:10:18;;;;;;;23.67;17.00;;;13.00;57.90;14.70;99660.00;;;;5010908;28;20197;-72
2024/03/11 04:12:49;;;;;;;23.83;16.98;;;12.90;57.90;14.70;99661.00;;;;5010524;28;20687;-72
2024/03/11 04:15:21;;;;;;;22.50;15.77;;;12.90;58.00;14.70;99671.00;;;;5011115;28;20275;-71
2024/03/11 04:17:49;;;;;;;21.00;16.15;;;12.90;58.10;14.70;99670.00;;;;5024149;28;20653;-72
2024/03/11 04:20:22;;;;;;;21.85;15.98;;;12.90;58.20;14.60;99661.00;;;;5010841;28;20229;-71
2024/03/11 04:22:51;;;;;;;22.23;15.68;;;12.90;58.20;14.60;99665.00;;;;5011263;28;20240;-71
2024/03/11 04:25:22;;;;;;;22.92;16.13;;;12.90;58.30;14.60;99668.00;;;;5005917;28;20766;-72
2024/03/11 04:27:50;;;;;;;21.40;15.82;;;12.90;58.30;14.60;99666.00;;;;5010725;28;20196;-71
2024/03/11 04:30:20;;;;;;;21.25;15.57;;;12.90;58.40;14.60;99662.00;;;;5010447;28;20189;-71
2024/03/11 04:32:52;;;;;;;22.88;16.38;;;12.80;58.50;14.60;99673.00;;;;5011499;28;20196;-73
2024/03/11 04:35:19;;;;;;;21.05;15.55;;;12.80;58.50;14.50;99667.00;;;;5018456;28;20197;-73
2024/03/11 04:37:47;;;;;;;20.40;15.20;;;12.80;58.60;14.50;99672.00;;;;5010104;28;20201;-74
2024/03/11 04:40:16;;;;;;;20.13;14.93;;;12.80;58.60;14.40;99670.00;;;;5002801;28;20328;-73
2024/03/11 04:42:43;;;;;;;20.73;15.68;;;12.70;58.60;14.40;99674.00;;;;5010882;28;20231;-71
2024/03/11 04:45:10;;;;;;;22.67;15.45;;;12.70;58.70;14.40;99670.00;;;;5011545;28;20677;-72
2024/03/11 04:47:38;;;;;;;20.17;14.32;;;12.70;58.90;14.40;99664.00;;;;5010387;28;20196;-72
2024/03/11 04:50:08;;;;;;;21.35;16.50;;;12.70;58.80;14.40;99670.00;;;;5009470;28;20573;-72
2024/03/11 04:52:35;;;;;;;21.77;16.35;;;12.60;59.00;14.40;99672.00;;;;5012985;28;20209;-72
2024/03/11 04:55:02;;;;;;;22.75;16.65;;;12.60;59.00;14.40;99685.00;;;;5010352;28;20196;-72
2024/03/11 04:57:31;;;;;;;20.10;15.20;;;12.60;59.00;14.40;99679.00;;;;5010424;28;20204;-72
2024/03/11 04:59:58;;;;;;;22.50;15.68;;;12.60;59.10;14.40;99678.00;;;;5010765;28;20239;-72
2024/03/11 05:02:25;;;;;;;22.90;15.88;;;12.60;59.20;14.40;99678.00;;;;5010901;28;20201;-72
2024/03/11 05:04:52;;;;;;;20.60;16.05;;;12.60;59.30;14.40;99677.00;;;;5010896;28;20199;-72
2024/03/11 05:07:19;;;;;;;20.52;15.15;;;12.60;59.40;14.30;99681.00;;;;5010680;28;20223;-72
2024/03/11 05:09:46;;;;;;;20.83;15.10;;;12.60;59.40;14.30;99687.00;;;;5002240;28;20205;-73
2024/03/11 05:12:13;;;;;;;23.45;16.05;;;12.50;59.40;14.30;99692.00;;;;4997336;28;20221;-73
2024/03/11 05:14:42;;;;;;;21.73;16.40;;;12.50;59.50;14.30;99678.00;;;;5004864;28;20193;-73
2024/03/11 05:17:10;;;;;;;19.92;15.23;;;12.50;59.60;14.30;99687.00;;;;5011490;28;20197;-73
2024/03/11 05:19:37;;;;;;;20.48;15.63;;;12.50;59.60;14.30;99686.00;;;;5014117;28;20229;-72
2024/03/11 05:22:04;;;;;;;24.40;16.13;;;12.50;59.70;14.30;99684.00;;;;5014538;28;20577;-72
2024/03/11 05:24:32;;;;;;;23.63;16.25;;;12.50;59.70;14.30;99684.00;;;;5014836;28;20247;-72
2024/03/11 05:26:59;;;;;;;22.30;16.70;;;12.50;59.70;14.30;99693.00;;;;5012185;28;20201;-72
2024/03/11 05:29:26;;;;;;;23.92;16.73;;;12.50;59.80;14.30;99693.00;;;;5013728;28;20189;-72
2024/03/11 05:31:54;;;;;;;21.90;15.63;;;12.50;59.80;14.30;99696.00;;;;5008964;28;20215;-73
2024/03/11 05:34:22;;;;;;;21.02;16.20;;;12.50;59.90;14.30;99695.00;;;;5007186;28;20636;-73
2024/03/11 05:36:49;;;;;;;22.65;16.58;;;12.50;60.60;14.20;99700.00;;;;5004530;28;20632;-72
2024/03/11 05:39:16;;;;;;;20.70;14.70;;;12.40;60.00;14.20;99703.00;;;;5006578;28;20217;-73
2024/03/11 05:41:44;;;;;;;20.35;15.05;;;12.40;60.10;14.20;99704.00;;;;5004370;28;20251;-73
2024/03/11 05:44:11;;;;;;;21.05;15.85;;;12.40;60.00;14.20;99705.00;;;;5002144;28;20195;-73
2024/03/11 05:46:39;;;;;;;23.38;16.52;;;12.40;60.00;14.20;99717.00;;;;5010324;28;20205;-73
2024/03/11 05:49:13;;;;;;;20.70;16.00;;;12.40;60.00;14.20;99715.00;;;;5014065;28;20279;-74
2024/03/11 05:51:41;;;;;;;21.52;16.20;;;12.40;60.80;14.20;99718.00;;;;5013496;28;20271;-74
2024/03/11 05:54:15;;;;;;;22.60;16.08;;;12.40;60.20;14.10;99720.00;;;;5013710;28;20410;-74
2024/03/11 05:56:43;;;;;;;20.48;14.48;;;12.40;60.30;14.10;99724.00;;;;5009021;28;20207;-74
2024/03/11 05:59:14;;;;;;;21.10;15.77;;;12.40;60.50;14.10;99734.00;;;;5008861;28;20672;-75
2024/03/11 06:01:41;;;;;;;20.45;15.48;;;12.40;60.50;14.10;99732.00;;;;5012715;28;20560;-75
2024/03/11 06:04:09;;;;;;;23.10;16.58;;;12.40;60.50;14.10;99742.00;;;;5012864;28;20207;-72
2024/03/11 06:06:38;;;;;;;21.50;15.75;;;12.30;60.40;14.10;99735.00;;;;5013648;28;20640;-73
2024/03/11 06:09:08;;;;;;;22.48;16.17;;;12.30;60.40;14.10;99735.00;;;;5014044;28;20193;-73
2024/03/11 06:11:38;;;;;;;22.35;15.02;;;12.30;60.60;14.10;99744.00;;;;5013390;28;20212;-73
2024/03/11 06:14:05;;;;;;;20.10;15.60;;;12.30;60.70;14.00;99753.00;;;;5003675;28;20279;-73
2024/03/11 06:16:33;;;;;;;20.23;15.07;;;12.30;60.70;14.10;99753.00;;;;5019490;28;20196;-74
2024/03/11 06:19:00;;;;;;;20.52;14.52;;;12.30;60.70;14.10;99751.00;;;;5012730;28;20237;-75
2024/03/11 06:21:30;;;;;;;19.70;15.63;;;12.30;60.90;14.00;99748.00;;;;5013081;28;20310;-75
2024/03/11 06:23:59;;;;;;;20.98;14.75;;;12.30;60.90;14.10;99745.00;;;;5012231;28;20284;-75
2024/03/11 06:26:27;;;;;;;20.98;15.20;;;12.30;61.00;14.10;99752.00;;;;5013247;28;20221;-76
2024/03/11 06:28:55;;;;;;;20.33;15.40;;;12.30;61.10;14.10;99752.00;;;;5012831;28;20193;-74
2024/03/11 06:31:23;;;;;;;21.73;15.90;;;12.30;61.20;14.10;99756.00;;;;5010171;28;20197;-75
2024/03/11 06:33:52;;;;;;;24.35;16.38;;;12.30;61.20;14.10;99765.00;;;;5013975;28;20197;-74
2024/03/11 06:36:19;;;;;;;20.70;15.02;;;12.30;61.20;14.10;99767.00;;;;5007339;28;20275;-74
2024/03/11 06:38:48;;;;;;;21.10;14.90;;;12.30;61.30;14.10;99771.00;;;;5012292;28;20197;-74
2024/03/11 06:41:15;;;;;;;22.33;15.25;;;12.30;61.20;14.10;99771.00;;;;5011727;28;20224;-75
2024/03/11 06:43:43;;;;;;;19.20;15.13;;;12.30;61.30;14.10;99775.00;;;;4664127;28;10000967;-75
2024/03/11 06:46:10;;;;;;;21.90;14.95;;;12.30;61.30;14.20;99781.00;;;;5012606;28;20203;-74
2024/03/11 06:48:37;;;;;;;20.95;15.15;;;12.30;61.40;14.20;99772.00;;;;5012388;28;20193;-75
2024/03/11 06:51:05;;;;;;;19.25;14.60;;;12.30;61.50;14.20;99780.00;;;;5020093;28;20583;-74
2024/03/11 06:53:33;;;;;;;19.63;15.05;;;12.40;61.60;14.20;99783.00;;;;5012031;28;20203;-74
2024/03/11 06:56:02;;;;;;;20.98;15.25;;;12.40;61.60;14.20;99788.00;;;;5008407;28;20202;-73
2024/03/11 06:58:29;;;;;;;18.58;14.90;;;12.40;61.60;14.20;99787.00;;;;4998221;28;20200;-73
2024/03/11 07:00:58;;;;;;;20.80;15.30;;;12.40;61.60;14.20;99792.00;;;;5012637;28;20717;-73
2024/03/11 07:03:29;;;;;;;21.15;15.98;;;12.40;61.50;14.20;99793.00;;;;5011191;28;20232;-72
2024/03/11 07:05:58;;;;;;;20.98;15.35;;;12.40;61.60;14.30;99801.00;;;;5010240;28;20258;-73
2024/03/11 07:08:26;;;;;;;19.58;15.63;;;12.40;61.60;14.20;99804.00;;;;5018623;28;20197;-73
2024/03/11 07:10:53;;;;;;;20.33;15.50;;;12.40;61.60;14.30;99808.00;;;;5011499;28;20223;-72
2024/03/11 07:13:22;;;;;;;19.38;15.00;;;12.50;61.70;14.30;99805.00;;;;4993682;28;20198;-73
2024/03/11 07:15:49;;;;;;;20.98;15.00;;;12.40;61.70;14.30;99798.00;;;;5012362;28;20574;-72
2024/03/11 07:18:16;;;;;;;19.85;14.88;;;12.40;61.70;14.30;99795.00;;;;5012862;28;20219;-72
2024/03/11 07:20:45;;;;;;;22.35;16.00;;;12.40;61.80;14.30;99792.00;;;;5011461;28;20306;-72
2024/03/11 07:23:12;;;;;;;21.35;15.65;;;12.40;61.70;14.30;99795.00;;;;5007409;28;20292;-72
2024/03/11 07:25:39;;;;;;;22.13;16.17;;;12.50;61.90;14.30;99793.00;;;;5002245;28;20236;-72
2024/03/11 07:28:07;;;;;;;20.70;15.32;;;12.50;61.80;14.30;99797.00;;;;5009514;28;20197;-72
2024/03/11 07:30:35;;;;;;;20.17;14.45;;;12.50;61.90;14.30;99795.00;;;;5011649;28;20280;-72
2024/03/11 07:33:07;;;;;;;20.67;14.68;;;12.50;61.90;14.30;99804.00;;;;5012122;28;20197;-72
2024/03/11 07:35:37;;;;;;;21.20;15.10;;;12.50;61.90;14.30;99801.00;;;;5001455;28;20197;-72
2024/03/11 07:38:05;;;;;;;19.40;14.30;;;12.50;61.90;14.30;99808.00;;;;4993039;28;20201;-72
2024/03/11 07:40:33;;;;;;;18.02;14.35;;;12.50;62.00;14.30;99813.00;;;;5010265;28;20260;-72
2024/03/11 07:43:00;;;;;;;19.58;14.95;;;12.50;62.00;14.30;99817.00;;;;5010573;28;20711;-72
2024/03/11 07:45:27;;;;;;;20.00;14.93;;;12.50;62.00;14.40;99810.00;;;;5010685;28;20209;-72
2024/03/11 07:47:56;;;;;;;22.35;15.65;;;12.50;62.10;14.30;99817.00;;;;5012500;28;20196;-72
2024/03/11 07:50:25;;;;;;;23.10;15.73;;;12.60;62.20;14.40;99817.00;;;;5011719;28;20232;-72
2024/03/11 07:52:52;;;;;;;18.70;14.48;;;12.50;62.20;14.40;99821.00;;;;5012099;28;20658;-73
2024/03/11 07:55:19;;;;;;;18.02;14.25;;;12.60;62.20;14.40;99826.00;;;;5012376;28;20279;-72
2024/03/11 07:57:46;;;;;;;19.55;14.57;;;12.60;62.20;14.40;99825.00;;;;5015830;28;20287;-73
2024/03/11 08:00:18;;;;;;;19.13;14.25;;;12.60;62.10;14.40;99826.00;;;;5029795;28;20204;-72
2024/03/11 08:02:46;;;;;;;20.30;14.88;;;12.60;62.10;14.40;99821.00;;;;5007779;28;20716;-73
2024/03/11 08:05:15;;;;;;;19.05;14.25;;;12.60;62.20;14.40;99819.00;;;;5011462;28;20197;-73
2024/03/11 08:07:43;;;;;;;20.48;14.15;;;12.60;62.10;14.40;99824.00;;;;5011584;28;20201;-72
2024/03/11 08:10:12;;;;;;;18.73;14.98;;;12.60;62.00;14.40;99830.00;;;;5011696;28;20654;-73
2024/03/11 08:12:41;;;;;;;20.77;14.25;;;12.60;62.10;14.40;99828.00;;;;5011146;28;20209;-72
2024/03/11 08:15:12;;;;;;;18.90;14.13;;;12.60;62.10;14.40;99832.00;;;;5008932;28;20201;-72
2024/03/11 08:17:41;;;;;;;16.73;12.93;;;12.60;62.30;14.40;99830.00;;;;5007957;28;20639;-72
2024/03/11 08:20:09;;;;;;;18.27;13.70;;;12.60;62.20;14.40;99832.00;;;;5010858;28;20232;-72
2024/03/11 08:22:39;;;;;;;20.10;14.15;;;12.60;62.20;14.40;99832.00;;;;5002673;28;20234;-73
2024/03/11 08:25:08;;;;;;;18.45;13.80;;;12.60;62.30;14.40;99839.00;;;;5009954;28;20663;-72
2024/03/11 08:27:36;;;;;;;15.70;12.60;;;12.60;62.30;14.50;99845.00;;;;5007272;28;20263;-72
2024/03/11 08:30:04;;;;;;;18.52;13.98;;;12.60;62.40;14.50;99852.00;;;;5011772;28;20197;-73
2024/03/11 08:32:32;;;;;;;17.77;13.45;;;12.60;62.40;14.50;99849.00;;;;5015712;28;20805;-72
2024/03/11 08:34:59;;;;;;;18.65;12.60;;;12.60;62.30;14.50;99852.00;;;;5007406;28;20198;-72
2024/03/11 08:37:27;;;;;;;18.08;13.57;;;12.70;62.40;14.50;99852.00;;;;5011088;28;20197;-72
2024/03/11 08:39:56;;;;;;;17.75;13.52;;;12.70;62.40;14.50;99853.00;;;;5010736;28;20197;-72
2024/03/11 08:42:24;;;;;;;18.35;13.00;;;12.70;62.50;14.50;99860.00;;;;5010410;28;20225;-71
2024/03/11 08:44:51;;;;;;;18.63;13.60;;;12.70;62.40;14.50;99863.00;;;;5009827;28;20204;-72
2024/03/11 08:47:19;;;;;;;16.67;12.70;;;12.60;62.40;14.50;99859.00;;;;5012230;28;20219;-72
2024/03/11 08:49:46;;;;;;;19.05;13.00;;;12.60;62.40;14.50;99870.00;;;;5027758;28;20200;-72
2024/03/11 08:52:14;;;;;;;16.92;13.43;;;12.70;62.40;14.50;99868.00;;;;5015217;28;20196;-72
2024/03/11 08:54:43;;;;;;;17.63;12.68;;;12.70;62.50;14.50;99870.00;;;;5013084;28;20200;-71
2024/03/11 08:57:13;;;;;;;16.98;12.20;;;12.70;62.50;14.40;99873.00;;;;5009828;28;20680;-72
2024/03/11 08:59:41;;;;;;;19.77;13.88;;;12.70;62.40;14.40;99870.00;;;;5009108;28;20288;-72
2024/03/11 09:02:09;;;;;;;20.02;14.00;;;12.60;62.30;14.40;99871.00;;;;5014163;28;20220;-72
2024/03/11 09:04:36;;;;;;;20.73;15.15;;;12.60;62.40;14.40;99874.00;;;;5013071;28;20255;-72
2024/03/11 09:07:04;;;;;;;18.30;13.50;;;12.60;63.10;14.40;99866.00;;;;5023748;28;20203;-71
2024/03/11 09:09:31;;;;;;;18.73;14.15;;;12.60;62.40;14.40;99866.00;;;;5013565;28;20205;-71
2024/03/11 09:12:00;;;;;;;16.52;12.55;;;12.60;62.40;14.40;99875.00;;;;5012874;28;20228;-71
2024/03/11 09:14:31;;;;;;;18.65;13.57;;;12.60;62.50;14.40;99870.00;;;;5013415;28;20197;-72
2024/03/11 09:17:00;;;;;;;17.48;12.68;;;12.60;62.50;14.40;99872.00;;;;5012999;28;20204;-72
2024/03/11 09:19:30;;;;;;;20.30;14.07;;;12.60;62.60;14.40;99874.00;;;;5014559;28;20717;-72
2024/03/11 09:21:58;;;;;;;20.30;15.32;;;12.60;62.70;14.40;99879.00;;;;5008987;28;20630;-72
2024/03/11 09:24:25;;;;;;;21.25;14.88;;;12.60;62.80;14.50;99879.00;;;;5030829;28;20625;-72
2024/03/11 09:26:53;;;;;;;20.55;15.20;;;12.60;62.80;14.50;99887.00;;;;5018700;28;20689;-72
2024/03/11 09:29:23;;;;;;;19.45;14.15;;;12.60;62.90;14.50;99888.00;;;;5014404;28;20215;-72
2024/03/11 09:31:52;;;;;;;21.30;16.02;;;12.60;63.60;14.50;99886.00;;;;5013689;28;20209;-72
2024/03/11 09:34:19;;;;;;;20.70;14.90;;;12.60;62.90;14.60;99897.00;;;;5013043;28;20201;-73
2024/03/11 09:36:46;;;;;;;21.05;14.88;;;12.70;62.90;14.60;99897.00;;;;5013953;28;20196;-71
2024/03/11 09:39:14;;;;;;;23.58;16.08;;;12.70;62.80;14.60;99904.00;;;;5013811;28;20193;-72
2024/03/11 09:41:43;;;;;;;21.27;15.18;;;12.70;62.90;14.60;99911.00;;;;5018983;28;20256;-72
2024/03/11 09:44:16;;;;;;;21.50;16.05;;;12.70;62.80;14.50;99915.00;;;;5014630;28;20193;-72
2024/03/11 09:46:45;;;;;;;23.63;16.73;;;12.70;62.80;14.60;99919.00;;;;5014130;28;20197;-72
2024/03/11 09:49:15;;;;;;;20.92;14.93;;;12.80;62.80;14.60;99917.00;;;;5014439;28;20196;-72
2024/03/11 09:51:45;;;;;;;21.85;16.13;;;12.70;62.70;14.60;99916.00;;;;5013955;28;20651;-72
2024/03/11 09:54:16;;;;;;;21.77;15.13;;;12.80;62.70;14.60;99918.00;;;;5014513;28;20636;-72
2024/03/11 09:56:47;;;;;;;22.73;16.70;;;12.80;62.70;14.60;99919.00;;;;5017721;28;20196;-73
2024/03/11 09:59:18;;;;;;;20.92;15.25;;;12.80;62.80;14.60;99924.00;;;;5034076;28;20196;-72
2024/03/11 10:01:52;;;;;;;24.90;15.98;;;12.80;62.80;14.60;99922.00;;;;5010913;28;20221;-71
2024/03/11 10:04:22;;;;;;;25.73;17.50;;;12.80;62.80;14.60;99927.00;;;;5014023;28;20200;-72
2024/03/11 10:06:57;;;;;;;22.45;15.60;;;12.80;62.80;14.60;99927.00;;;;5012800;28;20414;-72
2024/03/11 10:09:25;;;;;;;24.23;17.30;;;12.80;62.80;14.70;99925.00;;;;5014091;28;20211;-72
2024/03/11 10:12:07;;;;;;;25.00;15.68;;;12.80;62.70;14.60;99929.00;;;;5012054;28;20244;-72
2024/03/11 10:14:36;;;;;;;25.60;16.02;;;12.80;63.40;14.70;99932.00;;;;5013317;28;20211;-72
2024/03/11 10:17:21;;;;;;;22.10;15.40;;;12.80;62.90;14.60;99940.00;;;;5014040;28;20197;-72
2024/03/11 10:19:54;;;;;;;20.13;14.63;;;12.80;63.20;14.70;99939.00;;;;5012930;28;20219;-72
2024/03/11 10:22:26;;;;;;;21.45;16.33;;;12.90;63.10;14.70;99939.00;;;;5003629;28;20233;-71
2024/03/11 10:24:55;;;;;;;22.92;16.00;;;12.90;63.10;14.80;99934.00;;;;5001212;28;20274;-72
2024/03/11 10:27:23;;;;;;;21.08;15.43;;;12.90;63.00;14.80;99937.00;;;;5000268;28;20193;-72
2024/03/11 10:29:54;;;;;;;21.55;15.93;;;12.90;62.80;14.80;99939.00;;;;5000074;28;20207;-71
2024/03/11 10:32:36;;;;;;;23.27;16.15;;;12.90;62.70;14.70;99937.00;;;;5010406;28;20200;-70
2024/03/11 10:35:10;;;;;;;23.73;15.23;;;12.90;62.90;14.80;99930.00;;;;5009510;28;20677;-71
2024/03/11 10:37:39;;;;;;;21.90;15.55;;;13.00;62.70;14.80;99939.00;;;;5008901;28;22211;-73
2024/03/11 10:40:10;;;;;;;21.05;15.32;;;13.00;62.60;14.80;99947.00;;;;5007713;28;20555;-72
2024/03/11 10:42:38;;;;;;;22.58;15.32;;;13.00;62.60;14.80;99944.00;;;;5011576;28;20267;-72
2024/03/11 10:45:07;;;;;;;20.42;14.32;;;13.00;62.60;14.80;99949.00;;;;5009060;28;20228;-72